• Join FlightAware (Why Join?)
  • Login
  • US Flag 
08:29PM EST


 

Airport Tracker/Info


-or-


 

Live Flight TrackerFlight Track Log ✈ ELJ309 ✈ 05-Aug-2013 ✈ KFRG - KBCT

Flight Track Log - Related Links

Times and Time Zones

All times are in EDT time to prevent confusion due to time zone crossing. See the ELJ309 flight status page for this flight to view local times or setup timezone preferences in your user account.

Time Position Orientation Groundspeed Altitude Reporting Facility
EDT Latitude Longitude Course Direction KTS MPH feet Rate Location/Type
09:12AM 40.7667 -73.4333 270° West 171 197 2,200  Level New York TRACON
09:13AM 40.7667 -73.4833 270° West 248 285 3,000 720 Climbing New York TRACON
09:15AM 40.6453 -73.4733 176° South 225 259 4,500 1,320 Climbing New York Center
09:16AM 40.5686 -73.4594 172° South 263 303 7,200 2,760 Climbing New York Center
09:17AM 40.4772 -73.4450 173° South 303 349 10,000 2,640 Climbing New York Center
09:18AM 40.3944 -73.4281 171° South 309 356 12,500 2,160 Climbing New York Center
09:20AM 40.2497 -73.4008 172° South 302 348 16,100 1,920 Climbing Washington Center
09:21AM 40.1692 -73.3356 148° Southeast 319 367 17,800 1,560 Climbing Washington Center
09:22AM 40.0786 -73.2842 157° South 344 396 19,300 1,620 Climbing Washington Center
09:23AM 39.9919 -73.3222 199° South 328 377 21,100 1,680 Climbing Washington Center
09:24AM 39.9250 -73.4217 229° Southwest 331 381 22,800 1,440 Climbing Washington Center
09:25AM 39.8619 -73.5075 226° Southwest 342 394 24,000 1,260 Climbing Washington Center
09:26AM 39.7925 -73.5931 223° Southwest 342 394 25,300 1,320 Climbing Washington Center
09:27AM 39.7189 -73.6736 220° Southwest 347 399 26,700 1,200 Climbing Washington Center
09:28AM 39.6472 -73.7589 223° Southwest 352 405 27,800 1,080 Climbing Washington Center
09:29AM 39.5694 -73.8417 219° Southwest 359 413 28,900 1,140 Climbing Washington Center
09:30AM 39.4914 -73.9297 221° Southwest 364 419 30,100 1,200 Climbing Washington Center
09:31AM 39.4175 -74.0119 221° Southwest 364 419 31,300 1,080 Climbing Washington Center
09:32AM 39.3394 -74.0969 220° Southwest 364 419 32,400 1,020 Climbing Washington Center
09:33AM 39.2653 -74.1761 220° Southwest 364 419 33,400 900 Climbing Washington Center
09:34AM 39.1914 -74.2581 221° Southwest 364 419 34,200 660 Climbing Washington Center
09:35AM 39.1111 -74.3450 220° Southwest 364 419 34,800 540 Climbing Washington Center
09:36AM 39.0328 -74.4319 221° Southwest 370 426 35,400 600 Climbing Washington Center
09:37AM 38.9522 -74.5158 219° Southwest 375 432 36,100 660 Climbing Washington Center
09:38AM 38.8694 -74.6050 220° Southwest 380 437 36,800 660 Climbing Washington Center
09:39AM 38.7889 -74.6942 221° Southwest 380 437 37,500 600 Climbing Washington Center
09:40AM 38.7083 -74.7775 219° Southwest 380 437 38,100 600 Climbing Washington Center
09:41AM 38.6294 -74.8556 218° Southwest 373 429 38,800 540 Climbing Washington Center
09:42AM 38.5528 -74.9439 222° Southwest 373 429 39,200 300 Climbing Washington Center
09:43AM 38.4906 -75.0081 219° Southwest 373 429 39,400 120 Climbing Washington Center
09:44AM 38.4036 -75.1017 220° Southwest 373 429 39,500 120 Climbing Washington Center
09:45AM 38.3183 -75.1761 214° Southwest 373 429 39,700 240 Climbing Washington Center
09:46AM 38.2103 -75.2536 209° Southwest 390 449 40,000 120 Climbing Washington Center
09:47AM 38.1081 -75.3147 205° Southwest 398 458 40,000  Level Washington Center
09:48AM 38.0081 -75.3861 209° Southwest 410 472 40,000  Level Washington Center
09:49AM 37.9019 -75.4469 204° Southwest 416 479 40,000  Level Washington Center
09:50AM 37.7978 -75.5156 207° Southwest 416 479 40,000  Level Washington Center
09:51AM 37.6933 -75.5786 206° Southwest 421 484 40,000  Level Washington Center
09:52AM 37.5869 -75.6469 207° Southwest 426 490 40,000  Level Washington Center
09:53AM 37.4828 -75.7122 206° Southwest 426 490 40,000  Level Washington Center
09:54AM 37.3783 -75.7747 205° Southwest 426 490 40,000  Level Washington Center
09:55AM 37.2739 -75.8397 206° Southwest 426 490 40,000  Level Washington Center
09:56AM 37.1694 -75.9047 206° Southwest 426 490 40,000  Level Washington Center
09:57AM 37.0650 -75.9692 206° Southwest 426 490 40,000  Level Washington Center
09:58AM 36.9542 -76.0311 204° Southwest 439 505 40,000  Level Washington Center
09:59AM 36.8456 -76.0981 206° Southwest 446 513 40,000  Level Washington Center
10:00AM 36.7389 -76.1647 207° Southwest 435 501 40,000  Level Washington Center
10:01AM 36.6425 -76.2261 207° Southwest 435 501 40,000  Level Washington Center
10:02AM 36.5336 -76.2925 206° Southwest 430 495 40,000  Level Washington Center
10:03AM 36.4269 -76.3586 207° Southwest 430 495 40,000  Level Washington Center
10:04AM 36.3158 -76.4219 205° Southwest 430 495 40,000  Level Washington Center
10:05AM 36.2069 -76.4878 206° Southwest 430 495 40,000  Level Washington Center
10:06AM 36.0981 -76.5533 206° Southwest 430 495 40,000  Level Washington Center
10:07AM 35.9867 -76.6214 206° Southwest 435 501 40,000  Level Washington Center
10:08AM 35.8778 -76.6867 206° Southwest 441 507 40,000  Level Washington Center
10:09AM 35.7644 -76.7517 205° Southwest 447 514 40,000  Level Washington Center
10:10AM 35.6511 -76.8189 206° Southwest 447 514 40,000  Level Washington Center
10:11AM 35.5461 -76.8864 208° Southwest 441 507 40,000  Level Washington Center
10:12AM 35.4306 -76.9508 204° Southwest 446 513 40,000  Level Washington Center
10:13AM 35.3172 -77.0150 205° Southwest 446 513 40,000  Level Washington Center
10:14AM 35.2100 -77.0817 207° Southwest 446 513 40,000  Level Washington Center
10:15AM 35.0944 -77.1481 205° Southwest 446 513 40,000  Level Washington Center
10:16AM 34.9808 -77.2119 205° Southwest 446 513 40,000  Level Washington Center
10:17AM 34.8694 -77.2781 206° Southwest 446 513 40,000  Level Washington Center
10:18AM 34.7494 -77.3514 207° Southwest 446 513 40,000  Level Washington Center
10:19AM 34.6336 -77.4169 205° Southwest 446 513 40,000  Level Washington Center
10:20AM 34.5158 -77.4725 201° Southwest 446 513 40,000  Level Washington Center
10:24AM 34.3759 -77.5088 192° South  Level FlightAware Approximate
10:24AM 33.9611 -77.6472 192° South 481 554 40,000  Level Jacksonville Center
10:25AM 33.8375 -77.6872 195° South 469 540 40,000  Level Jacksonville Center
10:26AM 33.7119 -77.7272 195° South 470 541 40,000  Level Jacksonville Center
10:27AM 33.5717 -77.7703 194° South 470 541 40,000  Level Jacksonville Center
10:28AM 33.4481 -77.8097 195° South 471 542 40,000  Level Jacksonville Center
10:29AM 33.3244 -77.8492 195° South 472 543 40,000  Level Jacksonville Center
10:30AM 33.1989 -77.8886 195° South 480 552 40,000  Level Jacksonville Center
10:31AM 33.0731 -77.9278 195° South 474 545 40,000  Level Jacksonville Center
10:32AM 32.9494 -77.9692 196° South 473 544 40,000  Level Jacksonville Center
10:33AM 32.8236 -78.0033 193° South 471 542 40,000  Level Jacksonville Center
10:34AM 32.7000 -78.0444 196° South 466 536 40,000  Level Jacksonville Center
10:35AM 32.5739 -78.0808 194° South 474 545 40,000  Level Jacksonville Center
10:36AM 32.4483 -78.1219 195° South 471 542 40,000  Level Jacksonville Center
10:37AM 32.3244 -78.1578 194° South 481 554 40,000  Level Jacksonville Center
10:38AM 32.1983 -78.1964 195° South 466 536 40,000  Level Jacksonville Center
10:39AM 32.0725 -78.2347 194° South 476 548 40,000  Level Jacksonville Center
10:40AM 31.9469 -78.2825 198° South 476 548 40,000  Level Jacksonville Center
10:41AM 31.8231 -78.3231 196° South 476 548 40,000  Level Jacksonville Center
10:42AM 31.6972 -78.3608 194° South 476 548 40,000  Level Jacksonville Center
10:43AM 31.5694 -78.4061 197° South 476 548 40,000  Level Jacksonville Center
10:44AM 31.4475 -78.4414 194° South 469 540 40,000  Level Jacksonville Center
10:45AM 31.3217 -78.4839 196° South 469 540 40,000  Level Jacksonville Center
10:46AM 31.1956 -78.5214 194° South 483 556 40,000  Level Jacksonville Center
10:47AM 31.0717 -78.5586 194° South 475 547 40,000  Level Jacksonville Center
10:48AM 30.9436 -78.5983 195° South 469 540 40,000  Level Jacksonville Center
10:49AM 30.8217 -78.6400 196° South 474 545 40,000  Level Jacksonville Center
10:51AM 30.5872 -78.7128 195° South 478 550 40,000  Level Miami Center
10:52AM 30.4678 -78.7564 197° South 472 543 40,000  Level Miami Center
10:53AM 30.3400 -78.8000 196° South 473 544 40,000  Level Miami Center
10:54AM 30.2122 -78.8456 197° South 478 550 40,000  Level Miami Center
10:55AM 30.0847 -78.8864 195° South 478 550 40,000  Level Miami Center
10:56AM 29.9525 -78.9389 199° South 473 544 40,000  Level Miami Center
10:57AM 29.8267 -78.9794 196° South 473 544 40,000  Level Miami Center
10:58AM 29.6989 -79.0225 196° South 473 544 40,000 -60 Level Miami Center
10:59AM 29.5772 -79.0703 199° South 473 544 39,900 -60 Descending Miami Center
11:00AM 29.4514 -79.1106 196° South 473 544 39,900  Level Miami Center
11:01AM 29.3278 -79.1531 197° South 473 544 40,000  Climbing Miami Center
11:02AM 29.1956 -79.1908 194° South 465 535 39,900 -60 Descending Miami Center
11:03AM 29.0739 -79.2381 199° South 470 541 39,900  Level Miami Center
11:04AM 28.9500 -79.2806 197° South 470 541 39,900  Level Miami Center
11:05AM 28.8222 -79.3203 195° South 470 541 40,000 -420 Climbing Miami Center
11:06AM 28.6983 -79.3625 197° South 470 541 39,100 -1,800 Descending Miami Center
11:07AM 28.5722 -79.4047 196° South 475 547 36,500 -2,520 Descending Miami Center
11:08AM 28.4483 -79.4467 197° South 475 547 34,100 -2,640 Descending Miami Center
11:09AM 28.3267 -79.4864 196° South 469 540 31,300 -2,580 Descending Miami Center
11:10AM 28.2092 -79.5236 196° South 454 522 29,000 -2,340 Descending Miami Center
11:11AM 28.0936 -79.5633 197° South 449 517 26,700 -2,340 Descending Miami Center
11:12AM 27.9758 -79.6028 196° South 444 511 24,400 -2,340 Descending Miami Center
11:13AM 27.8644 -79.6400 196° South 439 505 22,100 -2,220 Descending Miami Center
11:14AM 27.7531 -79.6772 196° South 428 493 20,000 -2,100 Descending Miami Center
11:15AM 27.6481 -79.7122 196° South 414 476 17,900 -2,100 Descending Miami Center
11:16AM 27.5494 -79.7425 195° South 402 463 15,900 -2,040 Descending Miami Center
11:17AM 27.4464 -79.7775 197° South 396 456 13,900 -2,100 Descending Miami Center
11:18AM 27.3414 -79.8122 196° South 385 443 11,800 -1,860 Descending Miami Center
11:19AM 27.2572 -79.8381 195° South 336 387 10,200 -1,620 Descending Miami Center
11:20AM 27.1753 -79.8664 197° South 320 368 8,600 -1,140 Descending Miami Center
11:21AM 27.1097 -79.8972 203° Southwest 300 345 8,000 -1,200 Descending Miami Center
11:22AM 27.0400 -79.9350 206° Southwest 285 328 6,300 -1,500 Descending Miami Center
11:23AM 26.9564 -79.9422 184° South 269 310 5,000 -660 Descending Miami Center
11:24AM 26.8769 -79.9472 183° South 274 315 5,000  Level Miami Center
11:25AM 26.8017 -79.9497 182° South 279 321 5,000  Level Miami Center
11:26AM 26.7328 -79.9525 182° South 270 311 5,000  Level Miami Center
11:28AM 26.5916 -80.0145 180° South  Level Estimated
11:35AM 26.3785 -80.1077 180° South  Level Estimated
11:36AM 26.3785 -80.1077 180° South  Level Estimated
11:37AM 26.3785 -80.1077 180° South  Level Estimated
11:38AM 26.3785 -80.1077 180° South  Level Estimated
11:39AM 26.3785 -80.1077 180° South  Level Estimated
11:40AM 26.3785 -80.1077 180° South  Level Estimated
11:41AM 26.3785 -80.1077 180° South  Level Estimated
11:42AM 26.3785 -80.1077 180° South  Level Estimated